Phelps, New York
Current Conditions -  °F | °C
As of 4:53 AM on Saturday 20 Dec 2014 (Local Time) from KPEO Reporting Station
Overcast Overcast  
Wind Chill: 27°   Ceiling: 1900
Heat Index: 27°   Visibility: 10mi
Dew Point: 20°   Wind: 3mph
Humidity: 75%   Direction: 290°WNW
Pressure: 30.23"   Gusts: NA
Location:  42.96°N, 77.06°W
Report Text: KPEO 200953Z AUTO 29003KT 10SM OVC019 M03/M07 A3023 RMK AO2 SLP248 T10281067
Loading
Personal Weather Stations






























Interactive Weather Map New forecast layout! Learn more

10-Day Weather Forecast

Advertisements
Track Severe Weather on mobile